sensor_id;sensor_type;location;lat;lon;timestamp;pressure;altitude;pressure_sealevel;temperature;humidity
43420;BME280;29017;51.514;-0.178;2023-03-04T00:02:19;102604.53;;;8.36;64.68
43420;BME280;29017;51.514;-0.178;2023-03-04T00:04:46;102617.72;;;8.34;64.87
43420;BME280;29017;51.514;-0.178;2023-03-04T00:07:13;102611.44;;;8.23;64.51
43420;BME280;29017;51.514;-0.178;2023-03-04T00:09:44;102613.38;;;8.19;64.81
43420;BME280;29017;51.514;-0.178;2023-03-04T00:12:12;102613.66;;;8.14;65.19
43420;BME280;29017;51.514;-0.178;2023-03-04T00:14:39;102607.69;;;8.12;65.34
43420;BME280;29017;51.514;-0.178;2023-03-04T00:17:06;102605.22;;;8.09;65.56
43420;BME280;29017;51.514;-0.178;2023-03-04T00:19:33;102606.09;;;8.10;66.46
43420;BME280;29017;51.514;-0.178;2023-03-04T00:22:01;102598.13;;;8.11;66.11
43420;BME280;29017;51.514;-0.178;2023-03-04T00:24:28;102602.34;;;8.14;66.65
43420;BME280;29017;51.514;-0.178;2023-03-04T00:26:55;102601.88;;;8.07;66.66
43420;BME280;29017;51.514;-0.178;2023-03-04T00:29:22;102605.06;;;8.12;67.25
43420;BME280;29017;51.514;-0.178;2023-03-04T00:31:49;102605.16;;;8.11;67.89
43420;BME280;29017;51.514;-0.178;2023-03-04T00:34:16;102600.47;;;8.16;67.52
43420;BME280;29017;51.514;-0.178;2023-03-04T00:36:43;102603.66;;;8.21;69.31
43420;BME280;29017;51.514;-0.178;2023-03-04T00:39:10;102600.00;;;8.24;66.87
43420;BME280;29017;51.514;-0.178;2023-03-04T00:41:37;102598.22;;;8.24;66.76
43420;BME280;29017;51.514;-0.178;2023-03-04T00:44:04;102596.53;;;8.23;65.82
43420;BME280;29017;51.514;-0.178;2023-03-04T00:46:31;102585.22;;;8.23;66.12
43420;BME280;29017;51.514;-0.178;2023-03-04T00:48:58;102595.03;;;8.19;66.92
43420;BME280;29017;51.514;-0.178;2023-03-04T00:51:25;102590.91;;;8.15;66.44
43420;BME280;29017;51.514;-0.178;2023-03-04T00:53:52;102587.72;;;8.10;65.69
43420;BME280;29017;51.514;-0.178;2023-03-04T00:56:19;102586.88;;;8.09;66.75
43420;BME280;29017;51.514;-0.178;2023-03-04T00:58:50;102611.53;;;8.07;66.52
43420;BME280;29017;51.514;-0.178;2023-03-04T01:01:17;102592.50;;;8.03;66.36
43420;BME280;29017;51.514;-0.178;2023-03-04T01:03:44;102595.13;;;8.03;66.61
43420;BME280;29017;51.514;-0.178;2023-03-04T01:06:11;102590.91;;;8.01;66.66
43420;BME280;29017;51.514;-0.178;2023-03-04T01:08:38;102584.47;;;8.06;66.61
43420;BME280;29017;51.514;-0.178;2023-03-04T01:11:05;102579.09;;;8.08;66.63
43420;BME280;29017;51.514;-0.178;2023-03-04T01:13:32;102586.97;;;8.08;67.69
43420;BME280;29017;51.514;-0.178;2023-03-04T01:15:59;102590.34;;;8.10;67.03
43420;BME280;29017;51.514;-0.178;2023-03-04T01:18:26;102590.34;;;8.10;67.33
43420;BME280;29017;51.514;-0.178;2023-03-04T01:20:53;102590.28;;;8.11;67.03
43420;BME280;29017;51.514;-0.178;2023-03-04T01:23:20;102591.75;;;8.15;66.69
43420;BME280;29017;51.514;-0.178;2023-03-04T01:25:47;102588.66;;;8.09;66.40
43420;BME280;29017;51.514;-0.178;2023-03-04T01:28:14;102593.06;;;8.08;67.07
43420;BME280;29017;51.514;-0.178;2023-03-04T01:30:40;102594.03;;;8.07;67.74
43420;BME280;29017;51.514;-0.178;2023-03-04T01:33:07;102592.22;;;8.08;67.62
43420;BME280;29017;51.514;-0.178;2023-03-04T01:35:34;102597.38;;;8.09;67.42
43420;BME280;29017;51.514;-0.178;2023-03-04T01:38:01;102587.81;;;8.08;67.96
43420;BME280;29017;51.514;-0.178;2023-03-04T01:40:30;102579.94;;;8.08;68.04
43420;BME280;29017;51.514;-0.178;2023-03-04T01:42:57;102583.69;;;8.04;68.33
43420;BME280;29017;51.514;-0.178;2023-03-04T01:45:24;102585.75;;;7.99;68.65
43420;BME280;29017;51.514;-0.178;2023-03-04T01:47:51;102576.03;;;8.01;69.34
43420;BME280;29017;51.514;-0.178;2023-03-04T01:52:48;102571.16;;;7.95;69.58
43420;BME280;29017;51.514;-0.178;2023-03-04T01:55:18;102577.03;;;7.99;69.59
43420;BME280;29017;51.514;-0.178;2023-03-04T01:57:46;102580.34;;;8.02;69.06
43420;BME280;29017;51.514;-0.178;2023-03-04T02:00:16;102572.56;;;8.01;69.34
43420;BME280;29017;51.514;-0.178;2023-03-04T02:02:45;102568.25;;;7.86;69.70
43420;BME280;29017;51.514;-0.178;2023-03-04T02:05:13;102565.63;;;7.86;69.84
43420;BME280;29017;51.514;-0.178;2023-03-04T02:07:41;102563.56;;;7.77;70.24
43420;BME280;29017;51.514;-0.178;2023-03-04T02:10:09;102566.84;;;7.80;70.43
43420;BME280;29017;51.514;-0.178;2023-03-04T02:12:37;102556.56;;;7.77;70.33
43420;BME280;29017;51.514;-0.178;2023-03-04T02:15:04;102552.13;;;7.78;71.30
43420;BME280;29017;51.514;-0.178;2023-03-04T02:17:32;102542.41;;;7.80;71.78
43420;BME280;29017;51.514;-0.178;2023-03-04T02:22:26;102548.03;;;7.88;69.84
43420;BME280;29017;51.514;-0.178;2023-03-04T02:24:56;102546.25;;;7.88;70.22
43420;BME280;29017;51.514;-0.178;2023-03-04T02:27:26;102546.81;;;7.93;69.94
43420;BME280;29017;51.514;-0.178;2023-03-04T02:29:53;102543.91;;;7.98;69.23
43420;BME280;29017;51.514;-0.178;2023-03-04T02:32:20;102541.19;;;7.99;69.00
43420;BME280;29017;51.514;-0.178;2023-03-04T02:34:48;102543.19;;;7.96;68.21
43420;BME280;29017;51.514;-0.178;2023-03-04T02:37:16;102543.91;;;7.98;67.93
43420;BME280;29017;51.514;-0.178;2023-03-04T02:39:44;102547.38;;;7.98;68.91
43420;BME280;29017;51.514;-0.178;2023-03-04T02:42:11;102538.50;;;8.01;66.72
43420;BME280;29017;51.514;-0.178;2023-03-04T02:44:40;102541.13;;;8.01;66.92
43420;BME280;29017;51.514;-0.178;2023-03-04T02:47:09;102529.88;;;7.99;67.18
43420;BME280;29017;51.514;-0.178;2023-03-04T02:49:37;102539.44;;;8.00;68.25
43420;BME280;29017;51.514;-0.178;2023-03-04T02:52:05;102528.00;;;8.01;66.66
43420;BME280;29017;51.514;-0.178;2023-03-04T02:54:33;102525.38;;;8.01;66.87
43420;BME280;29017;51.514;-0.178;2023-03-04T02:57:01;102531.38;;;8.03;66.64
43420;BME280;29017;51.514;-0.178;2023-03-04T02:59:29;102527.72;;;8.05;66.69
43420;BME280;29017;51.514;-0.178;2023-03-04T03:01:56;102521.34;;;8.09;66.34
43420;BME280;29017;51.514;-0.178;2023-03-04T03:04:24;102520.50;;;8.09;66.22
43420;BME280;29017;51.514;-0.178;2023-03-04T03:06:51;102530.25;;;8.07;66.58
43420;BME280;29017;51.514;-0.178;2023-03-04T03:09:18;102525.38;;;8.01;66.46
43420;BME280;29017;51.514;-0.178;2023-03-04T03:11:47;102515.00;;;7.99;66.36
43420;BME280;29017;51.514;-0.178;2023-03-04T03:14:14;102516.88;;;7.97;66.56
43420;BME280;29017;51.514;-0.178;2023-03-04T03:16:41;102508.91;;;7.99;66.50
43420;BME280;29017;51.514;-0.178;2023-03-04T03:19:09;102505.56;;;7.97;66.97
43420;BME280;29017;51.514;-0.178;2023-03-04T03:21:36;102503.09;;;7.80;67.34
43420;BME280;29017;51.514;-0.178;2023-03-04T03:24:04;102514.06;;;7.86;67.12
43420;BME280;29017;51.514;-0.178;2023-03-04T03:26:31;102507.91;;;7.87;67.64
43420;BME280;29017;51.514;-0.178;2023-03-04T03:28:58;102503.47;;;7.88;67.81
43420;BME280;29017;51.514;-0.178;2023-03-04T03:31:25;102510.53;;;7.87;67.50
43420;BME280;29017;51.514;-0.178;2023-03-04T03:33:52;102511.44;;;7.86;67.50
43420;BME280;29017;51.514;-0.178;2023-03-04T03:36:19;102509.56;;;7.88;67.35
43420;BME280;29017;51.514;-0.178;2023-03-04T03:38:47;102509.47;;;7.90;68.97
43420;BME280;29017;51.514;-0.178;2023-03-04T03:41:13;102515.66;;;7.89;68.67
43420;BME280;29017;51.514;-0.178;2023-03-04T03:43:40;102526.81;;;7.92;67.80
43420;BME280;29017;51.514;-0.178;2023-03-04T03:46:07;102521.66;;;7.91;67.71
43420;BME280;29017;51.514;-0.178;2023-03-04T03:48:34;102511.09;;;7.92;67.79
43420;BME280;29017;51.514;-0.178;2023-03-04T03:51:01;102513.78;;;7.91;67.84
43420;BME280;29017;51.514;-0.178;2023-03-04T03:53:28;102513.13;;;7.87;67.93
43420;BME280;29017;51.514;-0.178;2023-03-04T03:55:55;102503.75;;;7.83;68.46
43420;BME280;29017;51.514;-0.178;2023-03-04T03:58:22;102514.06;;;7.86;68.04
43420;BME280;29017;51.514;-0.178;2023-03-04T04:00:49;102513.88;;;7.89;68.01
43420;BME280;29017;51.514;-0.178;2023-03-04T04:03:16;102506.78;;;7.91;68.10
43420;BME280;29017;51.514;-0.178;2023-03-04T04:05:43;102502.47;;;7.90;68.84
43420;BME280;29017;51.514;-0.178;2023-03-04T04:08:11;102501.31;;;7.94;68.80
43420;BME280;29017;51.514;-0.178;2023-03-04T04:10:39;102500.47;;;7.94;68.56
43420;BME280;29017;51.514;-0.178;2023-03-04T04:13:05;102502.09;;;7.96;68.51
43420;BME280;29017;51.514;-0.178;2023-03-04T04:15:32;102502.09;;;7.96;69.02
43420;BME280;29017;51.514;-0.178;2023-03-04T04:17:59;102507.13;;;7.99;68.62
43420;BME280;29017;51.514;-0.178;2023-03-04T04:20:26;102509.75;;;7.99;68.55
43420;BME280;29017;51.514;-0.178;2023-03-04T04:22:53;102511.53;;;7.99;68.84
43420;BME280;29017;51.514;-0.178;2023-03-04T04:25:20;102512.44;;;7.98;69.45
43420;BME280;29017;51.514;-0.178;2023-03-04T04:27:47;102510.97;;;7.94;70.89
43420;BME280;29017;51.514;-0.178;2023-03-04T04:30:13;102510.25;;;7.92;72.10
43420;BME280;29017;51.514;-0.178;2023-03-04T04:32:41;102515.56;;;7.90;72.54
43420;BME280;29017;51.514;-0.178;2023-03-04T04:35:07;102515.75;;;7.87;72.68
43420;BME280;29017;51.514;-0.178;2023-03-04T04:37:34;102509.69;;;7.87;72.98
43420;BME280;29017;51.514;-0.178;2023-03-04T04:40:02;102512.94;;;7.90;73.03
43420;BME280;29017;51.514;-0.178;2023-03-04T04:42:31;102524.25;;;7.91;73.51
43420;BME280;29017;51.514;-0.178;2023-03-04T04:44:59;102528.19;;;7.84;74.32
43420;BME280;29017;51.514;-0.178;2023-03-04T04:47:26;102530.06;;;7.82;75.12
43420;BME280;29017;51.514;-0.178;2023-03-04T04:49:52;102531.00;;;7.81;76.00
43420;BME280;29017;51.514;-0.178;2023-03-04T04:52:19;102524.34;;;7.75;76.26
43420;BME280;29017;51.514;-0.178;2023-03-04T04:54:46;102526.97;;;7.75;76.75
43420;BME280;29017;51.514;-0.178;2023-03-04T04:57:13;102527.13;;;7.58;77.31
43420;BME280;29017;51.514;-0.178;2023-03-04T04:59:40;102527.88;;;7.60;77.83
43420;BME280;29017;51.514;-0.178;2023-03-04T05:02:07;102528.25;;;7.54;77.83
43420;BME280;29017;51.514;-0.178;2023-03-04T05:04:34;102527.59;;;7.50;78.62
43420;BME280;29017;51.514;-0.178;2023-03-04T05:07:01;102527.59;;;7.50;78.83
43420;BME280;29017;51.514;-0.178;2023-03-04T05:09:28;102521.50;;;7.50;78.81
43420;BME280;29017;51.514;-0.178;2023-03-04T05:11:55;102532.00;;;7.50;79.41
43420;BME280;29017;51.514;-0.178;2023-03-04T05:14:22;102530.22;;;7.50;79.56
43420;BME280;29017;51.514;-0.178;2023-03-04T05:16:49;102538.53;;;7.57;78.68
43420;BME280;29017;51.514;-0.178;2023-03-04T05:19:19;102529.09;;;7.54;77.76
43420;BME280;29017;51.514;-0.178;2023-03-04T05:21:46;102535.91;;;7.57;78.32
43420;BME280;29017;51.514;-0.178;2023-03-04T05:24:12;102533.13;;;7.60;78.61
43420;BME280;29017;51.514;-0.178;2023-03-04T05:26:39;102542.69;;;7.61;77.69
43420;BME280;29017;51.514;-0.178;2023-03-04T05:29:06;102538.94;;;7.65;75.79
43420;BME280;29017;51.514;-0.178;2023-03-04T05:31:33;102542.41;;;7.65;75.63
43420;BME280;29017;51.514;-0.178;2023-03-04T05:34:00;102550.34;;;7.64;75.39
43420;BME280;29017;51.514;-0.178;2023-03-04T05:36:27;102543.97;;;7.68;75.09
43420;BME280;29017;51.514;-0.178;2023-03-04T05:38:54;102544.09;;;7.66;74.70
43420;BME280;29017;51.514;-0.178;2023-03-04T05:41:21;102551.94;;;7.66;74.71
43420;BME280;29017;51.514;-0.178;2023-03-04T05:43:48;102552.88;;;7.65;74.18
43420;BME280;29017;51.514;-0.178;2023-03-04T05:46:16;102547.53;;;7.67;74.60
43420;BME280;29017;51.514;-0.178;2023-03-04T05:48:44;102550.53;;;7.61;75.34
43420;BME280;29017;51.514;-0.178;2023-03-04T05:51:11;102542.75;;;7.59;75.91
43420;BME280;29017;51.514;-0.178;2023-03-04T05:53:39;102556.06;;;7.56;76.16
43420;BME280;29017;51.514;-0.178;2023-03-04T05:56:07;102543.88;;;7.55;76.20
43420;BME280;29017;51.514;-0.178;2023-03-04T05:58:34;102545.16;;;7.48;76.63
43420;BME280;29017;51.514;-0.178;2023-03-04T06:01:02;102546.00;;;7.49;77.00
43420;BME280;29017;51.514;-0.178;2023-03-04T06:03:29;102549.47;;;7.49;77.27
43420;BME280;29017;51.514;-0.178;2023-03-04T06:05:55;102552.84;;;7.51;76.89
43420;BME280;29017;51.514;-0.178;2023-03-04T06:08:23;102556.28;;;7.52;77.44
43420;BME280;29017;51.514;-0.178;2023-03-04T06:10:51;102549.19;;;7.54;77.87
43420;BME280;29017;51.514;-0.178;2023-03-04T06:13:18;102553.31;;;7.58;76.76
43420;BME280;29017;51.514;-0.178;2023-03-04T06:15:45;102554.09;;;7.60;76.94
43420;BME280;29017;51.514;-0.178;2023-03-04T06:18:13;102556.63;;;7.61;77.58
43420;BME280;29017;51.514;-0.178;2023-03-04T06:20:39;102547.81;;;7.62;76.11
43420;BME280;29017;51.514;-0.178;2023-03-04T06:23:07;102552.13;;;7.63;74.98
43420;BME280;29017;51.514;-0.178;2023-03-04T06:25:34;102544.25;;;7.63;75.01
43420;BME280;29017;51.514;-0.178;2023-03-04T06:28:00;102546.22;;;7.60;74.15
43420;BME280;29017;51.514;-0.178;2023-03-04T06:30:27;102552.66;;;7.54;74.71
43420;BME280;29017;51.514;-0.178;2023-03-04T06:32:54;102555.19;;;7.56;74.95
43420;BME280;29017;51.514;-0.178;2023-03-04T06:35:21;102558.66;;;7.56;76.04
43420;BME280;29017;51.514;-0.178;2023-03-04T06:37:48;102561.44;;;7.53;76.93
43420;BME280;29017;51.514;-0.178;2023-03-04T06:40:15;102559.88;;;7.51;77.59
43420;BME280;29017;51.514;-0.178;2023-03-04T06:42:42;102561.72;;;7.49;77.62
43420;BME280;29017;51.514;-0.178;2023-03-04T06:45:09;102561.81;;;7.47;78.04
43420;BME280;29017;51.514;-0.178;2023-03-04T06:47:37;102554.97;;;7.45;78.04
43420;BME280;29017;51.514;-0.178;2023-03-04T06:50:04;102566.56;;;7.41;78.35
43420;BME280;29017;51.514;-0.178;2023-03-04T06:52:32;102569.34;;;7.38;78.38
43420;BME280;29017;51.514;-0.178;2023-03-04T06:54:59;102575.69;;;7.34;78.56
43420;BME280;29017;51.514;-0.178;2023-03-04T06:57:26;102571.41;;;7.32;77.97
43420;BME280;29017;51.514;-0.178;2023-03-04T06:59:53;102566.25;;;7.31;77.84
43420;BME280;29017;51.514;-0.178;2023-03-04T07:02:20;102569.81;;;7.30;78.13
43420;BME280;29017;51.514;-0.178;2023-03-04T07:04:46;102574.69;;;7.36;78.61
43420;BME280;29017;51.514;-0.178;2023-03-04T07:07:13;102582.19;;;7.42;78.37
43420;BME280;29017;51.514;-0.178;2023-03-04T07:09:40;102582.00;;;7.45;78.09
43420;BME280;29017;51.514;-0.178;2023-03-04T07:12:07;102588.75;;;7.49;77.65
43420;BME280;29017;51.514;-0.178;2023-03-04T07:14:34;102595.56;;;7.52;77.24
43420;BME280;29017;51.514;-0.178;2023-03-04T07:17:01;102592.88;;;7.53;77.91
43420;BME280;29017;51.514;-0.178;2023-03-04T07:19:28;102586.44;;;7.59;76.81
43420;BME280;29017;51.514;-0.178;2023-03-04T07:21:55;102589.81;;;7.61;76.42
43420;BME280;29017;51.514;-0.178;2023-03-04T07:24:22;102596.72;;;7.62;76.81
43420;BME280;29017;51.514;-0.178;2023-03-04T07:26:49;102579.34;;;7.61;76.58
43420;BME280;29017;51.514;-0.178;2023-03-04T07:29:16;102591.41;;;7.63;76.26
43420;BME280;29017;51.514;-0.178;2023-03-04T07:31:43;102596.56;;;7.65;76.62
43420;BME280;29017;51.514;-0.178;2023-03-04T07:34:11;102592.75;;;7.70;76.10
43420;BME280;29017;51.514;-0.178;2023-03-04T07:36:38;102593.59;;;7.71;75.22
43420;BME280;29017;51.514;-0.178;2023-03-04T07:39:06;102594.44;;;7.71;75.49
43420;BME280;29017;51.514;-0.178;2023-03-04T07:41:33;102591.81;;;7.71;75.66
43420;BME280;29017;51.514;-0.178;2023-03-04T07:44:03;102594.59;;;7.68;75.70
43420;BME280;29017;51.514;-0.178;2023-03-04T07:46:30;102604.91;;;7.71;75.79
43420;BME280;29017;51.514;-0.178;2023-03-04T07:48:57;102603.38;;;7.67;75.84
43420;BME280;29017;51.514;-0.178;2023-03-04T07:51:25;102614.91;;;7.65;75.95
43420;BME280;29017;51.514;-0.178;2023-03-04T07:53:53;102608.81;;;7.64;76.48
43420;BME280;29017;51.514;-0.178;2023-03-04T07:56:22;102607.78;;;7.67;76.81
43420;BME280;29017;51.514;-0.178;2023-03-04T07:58:49;102603.03;;;7.73;76.87
43420;BME280;29017;51.514;-0.178;2023-03-04T08:01:21;102604.38;;;7.81;76.79
43420;BME280;29017;51.514;-0.178;2023-03-04T08:03:48;102609.41;;;7.84;75.61
43420;BME280;29017;51.514;-0.178;2023-03-04T08:06:15;102614.56;;;7.85;75.66
43420;BME280;29017;51.514;-0.178;2023-03-04T08:08:43;102606.50;;;7.88;75.96
43420;BME280;29017;51.514;-0.178;2023-03-04T08:11:11;102614.66;;;7.98;75.41
43420;BME280;29017;51.514;-0.178;2023-03-04T08:13:39;102618.06;;;8.00;74.57
43420;BME280;29017;51.514;-0.178;2023-03-04T08:16:06;102610.09;;;8.01;74.92
43420;BME280;29017;51.514;-0.178;2023-03-04T08:18:34;102610.00;;;8.03;74.62
43420;BME280;29017;51.514;-0.178;2023-03-04T08:21:01;102623.28;;;8.00;75.45
43420;BME280;29017;51.514;-0.178;2023-03-04T08:23:28;102620.88;;;7.97;75.89
43420;BME280;29017;51.514;-0.178;2023-03-04T08:25:55;102619.09;;;7.97;76.04
43420;BME280;29017;51.514;-0.178;2023-03-04T08:28:22;102614.59;;;7.99;76.47
43420;BME280;29017;51.514;-0.178;2023-03-04T08:33:19;102617.84;;;8.03;76.46
43420;BME280;29017;51.514;-0.178;2023-03-04T08:35:46;102621.81;;;8.10;76.24
43420;BME280;29017;51.514;-0.178;2023-03-04T08:38:13;102622.66;;;8.10;74.75
43420;BME280;29017;51.514;-0.178;2023-03-04T08:40:40;102620.03;;;8.10;74.81
43420;BME280;29017;51.514;-0.178;2023-03-04T08:43:07;102626.03;;;8.12;74.77
43420;BME280;29017;51.514;-0.178;2023-03-04T08:45:34;102625.06;;;8.13;75.29
43420;BME280;29017;51.514;-0.178;2023-03-04T08:48:01;102620.31;;;8.20;74.98
43420;BME280;29017;51.514;-0.178;2023-03-04T08:50:27;102623.59;;;8.24;74.79
43420;BME280;29017;51.514;-0.178;2023-03-04T08:52:54;102623.59;;;8.24;74.66
43420;BME280;29017;51.514;-0.178;2023-03-04T08:55:21;102620.78;;;8.27;74.69
43420;BME280;29017;51.514;-0.178;2023-03-04T08:57:48;102613.41;;;8.33;75.12
43420;BME280;29017;51.514;-0.178;2023-03-04T09:00:16;102616.72;;;8.37;75.19
43420;BME280;29017;51.514;-0.178;2023-03-04T09:02:45;102622.81;;;8.37;74.78
43420;BME280;29017;51.514;-0.178;2023-03-04T09:05:12;102621.09;;;8.36;74.02
43420;BME280;29017;51.514;-0.178;2023-03-04T09:07:39;102614.94;;;8.37;74.86
43420;BME280;29017;51.514;-0.178;2023-03-04T09:10:06;102613.97;;;8.38;74.41
43420;BME280;29017;51.514;-0.178;2023-03-04T09:12:33;102614.72;;;8.40;73.90
43420;BME280;29017;51.514;-0.178;2023-03-04T09:15:00;102606.88;;;8.40;73.64
43420;BME280;29017;51.514;-0.178;2023-03-04T09:17:37;102603.09;;;8.44;73.54
43420;BME280;29017;51.514;-0.178;2023-03-04T09:20:07;102607.34;;;8.47;72.74
43420;BME280;29017;51.514;-0.178;2023-03-04T09:22:40;102606.41;;;8.48;72.47
43420;BME280;29017;51.514;-0.178;2023-03-04T09:25:08;102617.81;;;8.47;72.48
43420;BME280;29017;51.514;-0.178;2023-03-04T09:27:38;102615.09;;;8.48;72.59
43420;BME280;29017;51.514;-0.178;2023-03-04T09:30:06;102606.13;;;8.52;72.48
43420;BME280;29017;51.514;-0.178;2023-03-04T09:32:37;102615.66;;;8.53;72.54
43420;BME280;29017;51.514;-0.178;2023-03-04T09:35:04;102611.09;;;8.43;72.45
43420;BME280;29017;51.514;-0.178;2023-03-04T09:37:31;102613.81;;;8.41;73.34
43420;BME280;29017;51.514;-0.178;2023-03-04T09:39:58;102611.19;;;8.41;72.52
43420;BME280;29017;51.514;-0.178;2023-03-04T09:42:27;102614.34;;;8.46;72.59
43420;BME280;29017;51.514;-0.178;2023-03-04T09:44:56;102614.34;;;8.46;72.13
43420;BME280;29017;51.514;-0.178;2023-03-04T09:47:23;102615.00;;;8.50;72.00
43420;BME280;29017;51.514;-0.178;2023-03-04T09:49:54;102608.53;;;8.55;71.66
43420;BME280;29017;51.514;-0.178;2023-03-04T09:57:27;102613.56;;;8.58;71.61
43420;BME280;29017;51.514;-0.178;2023-03-04T10:02:34;102610.50;;;8.66;71.79
43420;BME280;29017;51.514;-0.178;2023-03-04T10:05:06;102614.59;;;8.70;71.08
43420;BME280;29017;51.514;-0.178;2023-03-04T10:07:36;102606.34;;;8.76;71.60
43420;BME280;29017;51.514;-0.178;2023-03-04T10:10:06;102609.53;;;8.81;72.21
43420;BME280;29017;51.514;-0.178;2023-03-04T10:12:38;102615.25;;;8.88;71.54
43420;BME280;29017;51.514;-0.178;2023-03-04T10:17:39;102618.75;;;9.01;70.74
43420;BME280;29017;51.514;-0.178;2023-03-04T10:20:11;102620.91;;;9.09;70.28
43420;BME280;29017;51.514;-0.178;2023-03-04T10:25:14;102605.88;;;9.11;69.52
43420;BME280;29017;51.514;-0.178;2023-03-04T10:27:43;102611.13;;;9.11;69.28
43420;BME280;29017;51.514;-0.178;2023-03-04T10:32:44;102609.59;;;9.21;69.87
43420;BME280;29017;51.514;-0.178;2023-03-04T10:35:12;102605.94;;;9.23;69.75
43420;BME280;29017;51.514;-0.178;2023-03-04T10:42:40;102597.59;;;9.17;70.71
43420;BME280;29017;51.514;-0.178;2023-03-04T10:45:18;102600.44;;;9.14;70.91
43420;BME280;29017;51.514;-0.178;2023-03-04T10:47:50;102596.84;;;9.15;70.83
43420;BME280;29017;51.514;-0.178;2023-03-04T10:50:20;102590.88;;;9.13;71.27
43420;BME280;29017;51.514;-0.178;2023-03-04T10:52:48;102602.84;;;9.17;72.63
43420;BME280;29017;51.514;-0.178;2023-03-04T10:55:19;102585.94;;;9.21;71.61
43420;BME280;29017;51.514;-0.178;2023-03-04T10:57:48;102587.78;;;9.33;70.96
43420;BME280;29017;51.514;-0.178;2023-03-04T11:05:25;102582.38;;;9.22;68.06
43420;BME280;29017;51.514;-0.178;2023-03-04T11:07:53;102581.94;;;9.15;68.18
43420;BME280;29017;51.514;-0.178;2023-03-04T11:10:24;102577.00;;;9.11;68.53
43420;BME280;29017;51.514;-0.178;2023-03-04T11:15:22;102572.88;;;9.07;68.39
43420;BME280;29017;51.514;-0.178;2023-03-04T11:17:54;102574.66;;;9.06;67.70
43420;BME280;29017;51.514;-0.178;2023-03-04T11:22:49;102572.97;;;9.05;66.69
43420;BME280;29017;51.514;-0.178;2023-03-04T11:27:50;102567.41;;;8.97;67.15
43420;BME280;29017;51.514;-0.178;2023-03-04T11:32:46;102563.00;;;8.97;68.29
43420;BME280;29017;51.514;-0.178;2023-03-04T11:37:46;102551.72;;;8.95;68.57
43420;BME280;29017;51.514;-0.178;2023-03-04T11:40:22;102550.88;;;8.95;68.60
43420;BME280;29017;51.514;-0.178;2023-03-04T11:43:19;102557.75;;;8.97;71.07
43420;BME280;29017;51.514;-0.178;2023-03-04T11:45:55;102560.91;;;9.02;68.88
43420;BME280;29017;51.514;-0.178;2023-03-04T11:50:56;102566.00;;;8.91;67.65
43420;BME280;29017;51.514;-0.178;2023-03-04T12:00:57;102552.00;;;8.78;68.20
43420;BME280;29017;51.514;-0.178;2023-03-04T12:10:59;102534.56;;;8.77;67.40
43420;BME280;29017;51.514;-0.178;2023-03-04T12:13:33;102530.69;;;8.83;67.58
43420;BME280;29017;51.514;-0.178;2023-03-04T12:26:06;102520.44;;;8.92;69.09
43420;BME280;29017;51.514;-0.178;2023-03-04T12:56:20;102477.00;;;9.01;65.84
43420;BME280;29017;51.514;-0.178;2023-03-04T12:58:49;102476.06;;;9.02;65.54
43420;BME280;29017;51.514;-0.178;2023-03-04T13:01:20;102478.16;;;9.10;65.08
43420;BME280;29017;51.514;-0.178;2023-03-04T13:18:54;102457.50;;;9.43;62.11
43420;BME280;29017;51.514;-0.178;2023-03-04T13:21:25;102453.81;;;9.45;61.35
43420;BME280;29017;51.514;-0.178;2023-03-04T13:23:54;102452.78;;;9.48;60.54
43420;BME280;29017;51.514;-0.178;2023-03-04T13:28:52;102443.41;;;9.57;59.77
43420;BME280;29017;51.514;-0.178;2023-03-04T13:31:21;102447.50;;;9.61;60.48
43420;BME280;29017;51.514;-0.178;2023-03-04T13:33:50;102439.28;;;9.65;61.35
43420;BME280;29017;51.514;-0.178;2023-03-04T13:41:21;102432.16;;;9.67;58.87
43420;BME280;29017;51.514;-0.178;2023-03-04T13:56:26;102431.16;;;9.44;61.16
43420;BME280;29017;51.514;-0.178;2023-03-04T14:01:26;102431.16;;;9.44;60.93
43420;BME280;29017;51.514;-0.178;2023-03-04T14:03:54;102434.59;;;9.45;61.69
43420;BME280;29017;51.514;-0.178;2023-03-04T14:06:23;102419.97;;;9.41;61.79
43420;BME280;29017;51.514;-0.178;2023-03-04T14:08:51;102420.81;;;9.41;61.39
43420;BME280;29017;51.514;-0.178;2023-03-04T14:13:48;102418.81;;;9.45;60.50
43420;BME280;29017;51.514;-0.178;2023-03-04T14:21:17;102415.16;;;9.48;59.15
43420;BME280;29017;51.514;-0.178;2023-03-04T14:23:44;102417.69;;;9.49;59.33
43420;BME280;29017;51.514;-0.178;2023-03-04T14:26:12;102414.09;;;9.50;59.42
43420;BME280;29017;51.514;-0.178;2023-03-04T14:28:42;102418.31;;;9.53;59.17
43420;BME280;29017;51.514;-0.178;2023-03-04T14:31:13;102403.38;;;9.53;59.04
43420;BME280;29017;51.514;-0.178;2023-03-04T14:33:43;102398.31;;;9.50;59.53
43420;BME280;29017;51.514;-0.178;2023-03-04T14:36:14;102407.03;;;9.51;59.30
43420;BME280;29017;51.514;-0.178;2023-03-04T14:38:42;102401.59;;;9.54;59.16
43420;BME280;29017;51.514;-0.178;2023-03-04T14:41:15;102406.94;;;9.52;59.04
43420;BME280;29017;51.514;-0.178;2023-03-04T14:43:46;102397.38;;;9.51;59.48
43420;BME280;29017;51.514;-0.178;2023-03-04T14:46:16;102393.91;;;9.51;59.90
43420;BME280;29017;51.514;-0.178;2023-03-04T14:48:46;102400.13;;;9.50;60.55
43420;BME280;29017;51.514;-0.178;2023-03-04T14:51:27;102397.38;;;9.51;60.13
43420;BME280;29017;51.514;-0.178;2023-03-04T14:53:55;102383.31;;;9.52;59.51
43420;BME280;29017;51.514;-0.178;2023-03-04T14:58:53;102388.66;;;9.51;59.29
43420;BME280;29017;51.514;-0.178;2023-03-04T15:01:21;102388.03;;;9.47;59.47
43420;BME280;29017;51.514;-0.178;2023-03-04T15:03:52;102383.94;;;9.43;59.97
43420;BME280;29017;51.514;-0.178;2023-03-04T15:06:22;102377.09;;;9.40;60.39
43420;BME280;29017;51.514;-0.178;2023-03-04T15:11:22;102372.38;;;9.45;58.96
43420;BME280;29017;51.514;-0.178;2023-03-04T15:13:52;102364.28;;;9.49;59.15
43420;BME280;29017;51.514;-0.178;2023-03-04T15:16:21;102371.09;;;9.51;59.80
43420;BME280;29017;51.514;-0.178;2023-03-04T15:23:47;102356.22;;;9.39;61.10
43420;BME280;29017;51.514;-0.178;2023-03-04T15:26:15;102358.00;;;9.38;60.63
43420;BME280;29017;51.514;-0.178;2023-03-04T15:28:43;102356.31;;;9.37;59.91
43420;BME280;29017;51.514;-0.178;2023-03-04T15:31:17;102351.06;;;9.37;59.93